Time;durP1;ratioP1;P1;durP2;ratioP2;P2;SDS_P1;SDS_P2;PMS_P1;PMS_P2;Temp;Humidity;BMP_temperature;BMP_pressure;BME280_temperature;BME280_humidity;BME280_pressure;Samples;Min_cycle;Max_cycle;Signal;HPM_P1;HPM_P2
2021/09/02 00:02:13;;;;;;;;;19.25;17.25;;;;;15.68;61.63;101341.09;5018039;28;45328;-86
2021/09/02 00:04:39;;;;;;;;;22.50;20.00;;;;;15.69;61.76;101348.16;5016338;28;45191;-86
2021/09/02 00:07:04;;;;;;;;;18.50;16.75;;;;;15.56;61.81;101337.38;5016162;28;46909;-86
2021/09/02 00:09:30;;;;;;;;;25.50;19.00;;;;;15.73;61.86;101371.13;5017655;28;45224;-86
2021/09/02 00:11:55;;;;;;;;;20.00;20.00;;;;;15.59;61.78;101353.28;5017991;28;45217;-87
2021/09/02 00:14:21;;;;;;;;;19.00;17.50;;;;;15.65;61.95;101357.38;5017876;28;45222;-85
2021/09/02 00:16:50;;;;;;;;;19.00;18.25;;;;;15.64;61.77;101352.97;5017744;28;45472;-86
2021/09/02 00:19:16;;;;;;;;;21.75;20.50;;;;;15.61;61.85;101347.81;5017400;28;45289;-85
2021/09/02 00:21:42;;;;;;;;;20.00;18.25;;;;;15.66;62.12;101351.94;5016480;28;45261;-86
2021/09/02 00:24:07;;;;;;;;;22.25;19.00;;;;;15.52;61.91;101331.34;5016492;28;45158;-86
2021/09/02 00:26:32;;;;;;;;;21.50;19.25;;;;;15.54;61.55;101329.44;5017213;28;46428;-86
2021/09/02 00:28:58;;;;;;;;;18.75;18.25;;;;;15.65;62.09;101349.34;5017659;28;45166;-86
2021/09/02 00:31:23;;;;;;;;;21.25;17.50;;;;;15.49;62.06;101320.84;5017296;28;45131;-86
2021/09/02 00:33:49;;;;;;;;;21.25;18.00;;;;;15.58;62.10;101331.94;5017585;28;45448;-86
2021/09/02 00:36:15;;;;;;;;;18.50;17.75;;;;;15.57;62.12;101327.53;5017457;28;46147;-85
2021/09/02 00:38:40;;;;;;;;;17.50;16.50;;;;;15.62;61.90;101338.78;5015946;28;45371;-86
2021/09/02 00:41:05;;;;;;;;;19.50;16.75;;;;;15.53;61.86;101321.50;5032616;28;45482;-85
2021/09/02 00:43:38;;;;;;;;;23.50;20.75;;;;;15.63;62.00;101333.34;5015765;28;45619;-86
2021/09/02 00:46:06;;;;;;;;;22.75;20.25;;;;;15.64;62.14;101336.91;5015469;28;48264;-87
2021/09/02 00:48:32;;;;;;;;;23.75;21.75;;;;;15.50;61.90;101313.66;5017677;28;45484;-86
2021/09/02 00:50:57;;;;;;;;;18.50;17.75;;;;;15.58;61.81;101324.75;5015988;28;45293;-87
2021/09/02 00:53:23;;;;;;;;;21.00;16.25;;;;;15.50;61.97;101310.97;5015453;28;45305;-86
2021/09/02 00:55:49;;;;;;;;;19.25;18.50;;;;;15.46;62.27;101315.69;5017135;28;45277;-86
2021/09/02 00:58:14;;;;;;;;;21.00;18.75;;;;;15.46;61.99;101307.66;5016892;28;45231;-87
2021/09/02 01:00:39;;;;;;;;;18.50;16.50;;;;;15.48;61.61;101315.59;5017012;28;45281;-87
2021/09/02 01:03:05;;;;;;;;;19.00;17.00;;;;;15.42;62.10;101314.16;5015692;28;45276;-86
2021/09/02 01:05:30;;;;;;;;;19.75;18.00;;;;;15.48;62.30;101342.38;5015488;28;47189;-86
2021/09/02 01:07:58;;;;;;;;;18.50;15.75;;;;;15.40;62.37;101332.13;5017132;28;45178;-86
2021/09/02 01:10:23;;;;;;;;;19.25;16.50;;;;;15.26;62.39;101316.91;5017101;28;45182;-86
2021/09/02 01:12:50;;;;;;;;;19.75;16.75;;;;;15.35;62.34;101337.78;5016779;28;45238;-86
2021/09/02 01:15:20;;;;;;;;;20.75;19.50;;;;;15.40;62.49;101342.00;5015164;28;47576;-86
2021/09/02 01:17:48;;;;;;;;;19.50;17.25;;;;;15.33;62.63;101333.47;5015482;28;45757;-86
2021/09/02 01:20:17;;;;;;;;;20.75;18.50;;;;;15.22;62.57;101312.75;5015917;28;45212;-85
2021/09/02 01:22:45;;;;;;;;;19.00;17.00;;;;;15.25;62.62;101315.22;5016747;28;45317;-85
2021/09/02 01:25:18;;;;;;;;;21.25;16.25;;;;;15.25;62.69;101312.53;5015244;28;47251;-85
2021/09/02 01:27:47;;;;;;;;;19.75;18.50;;;;;15.31;62.64;101319.34;5016956;28;45825;-86
2021/09/02 01:30:13;;;;;;;;;17.75;17.25;;;;;15.22;62.65;101299.34;5015325;28;45366;-86
2021/09/02 01:32:45;;;;;;;;;23.00;19.50;;;;;15.28;63.10;101315.03;5016596;28;45325;-86
2021/09/02 01:35:11;;;;;;;;;21.25;17.25;;;;;15.09;62.94;101283.19;5015256;28;48045;-86
2021/09/02 01:37:56;;;;;;;;;19.00;18.00;;;;;15.21;62.78;101310.16;5016690;28;45773;-86
2021/09/02 01:40:26;;;;;;;;;19.25;18.00;;;;;15.09;62.97;101293.91;5016701;28;45346;-85
2021/09/02 01:42:51;;;;;;;;;20.50;19.50;;;;;15.17;62.91;101299.59;5016489;28;45499;-86
2021/09/02 01:45:17;;;;;;;;;18.00;17.75;;;;;14.96;63.22;101275.06;5014701;28;47489;-86
2021/09/02 01:47:43;;;;;;;;;24.25;20.75;;;;;15.04;63.06;101289.78;5015161;28;45235;-87
2021/09/02 01:50:17;;;;;;;;;21.75;19.50;;;;;15.09;63.22;101303.72;5015121;28;45211;-86
2021/09/02 01:52:44;;;;;;;;;24.75;22.00;;;;;14.91;63.22;101279.81;5016467;28;45250;-87
2021/09/02 01:55:10;;;;;;;;;31.00;25.00;;;;;14.91;63.27;101293.22;5015907;28;46192;-87
2021/09/02 01:57:37;;;;;;;;;28.50;25.00;;;;;15.00;63.30;101308.69;5015065;28;45220;-87
2021/09/02 02:00:05;;;;;;;;;29.00;27.25;;;;;14.90;63.16;101293.31;5014890;28;45150;-86
2021/09/02 02:02:30;;;;;;;;;37.50;31.00;;;;;14.94;63.07;101311.75;5016199;28;45201;-86
2021/09/02 02:04:56;;;;;;;;;38.75;33.00;;;;;14.81;63.67;101290.25;5014723;28;48166;-85
2021/09/02 02:07:21;;;;;;;;;38.00;31.25;;;;;14.88;63.56;101303.25;5016577;28;45266;-86
2021/09/02 02:09:46;;;;;;;;;43.25;34.25;;;;;14.72;63.56;101282.78;5031869;28;45437;-86
2021/09/02 02:12:12;;;;;;;;;45.50;37.25;;;;;14.82;63.97;101299.13;5016285;28;45258;-86
2021/09/02 02:14:37;;;;;;;;;45.50;37.25;;;;;14.67;64.10;101283.03;5015874;28;46190;-86
2021/09/02 02:17:03;;;;;;;;;48.75;38.50;;;;;14.68;63.94;101278.56;5016444;28;45230;-86
2021/09/02 02:19:28;;;;;;;;;54.00;43.00;;;;;14.58;63.84;101259.50;5014678;28;45243;-86
2021/09/02 02:21:54;;;;;;;;;51.50;40.75;;;;;14.71;63.92;101283.72;5016343;28;45238;-87
2021/09/02 02:24:19;;;;;;;;;57.00;44.25;;;;;14.54;64.28;101252.63;5014547;28;47072;-86
2021/09/02 02:26:44;;;;;;;;;57.25;43.50;;;;;14.55;64.02;101264.16;5016146;28;45187;-87
2021/09/02 02:29:09;;;;;;;;;12.50;10.00;;;;;14.57;63.90;101281.84;5014983;28;45194;-86
2021/09/02 02:31:35;;;;;;;;;55.50;42.50;;;;;14.60;64.37;101292.38;5033251;28;45320;-88
2021/09/02 02:34:00;;;;;;;;;51.75;42.00;;;;;14.48;64.24;101275.25;5019619;28;46491;-87
2021/09/02 02:36:26;;;;;;;;;51.75;43.00;;;;;14.53;64.15;101282.16;5019568;28;45548;-87
2021/09/02 02:38:51;;;;;;;;;57.25;46.00;;;;;14.39;64.41;101267.75;5019940;28;45275;-86
2021/09/02 02:41:17;;;;;;;;;55.25;45.00;;;;;14.44;64.45;101278.22;5019637;28;45352;-86
2021/09/02 02:43:42;;;;;;;;;55.00;44.50;;;;;14.38;64.60;101268.75;5017595;28;47058;-88
2021/09/02 02:46:07;;;;;;;;;56.00;44.75;;;;;14.23;64.41;101251.78;5017840;28;45188;-86
2021/09/02 02:48:33;;;;;;;;;55.75;44.25;;;;;14.13;64.26;101245.25;5017967;28;45144;-86
2021/09/02 02:50:58;;;;;;;;;58.50;46.00;;;;;14.14;64.97;101255.88;5019395;28;45258;-86
2021/09/02 02:53:24;;;;;;;;;60.00;48.25;;;;;14.09;65.17;101251.75;5017625;28;46914;-86
2021/09/02 02:55:49;;;;;;;;;60.25;47.00;;;;;14.19;64.96;101276.13;5019202;28;45314;-86
2021/09/02 02:58:14;;;;;;;;;60.50;46.50;;;;;14.04;64.94;101246.66;5019429;28;45258;-86
2021/09/02 03:00:40;;;;;;;;;61.50;47.50;;;;;14.03;65.19;101241.41;5017724;28;45291;-87
2021/09/02 03:03:05;;;;;;;;;65.33;48.33;;;;;13.96;65.17;101244.44;5018783;28;45364;-87
2021/09/02 03:05:30;;;;;;;;;61.00;48.00;;;;;13.94;65.32;101243.66;5034265;28;45174;-86
2021/09/02 03:07:56;;;;;;;;;61.00;44.50;;;;;13.94;64.98;101242.81;5017818;28;45197;-86
2021/09/02 03:10:21;;;;;;;;;62.33;47.67;;;;;13.93;65.54;101252.63;5034431;28;45248;-87
2021/09/02 03:12:46;;;;;;;;;62.75;47.50;;;;;13.70;65.37;101224.56;5018480;28;45625;-86
2021/09/02 03:15:12;;;;;;;;;61.33;46.33;;;;;13.75;65.47;101246.56;5017170;28;46138;-86
2021/09/02 03:17:37;;;;;;;;;57.75;45.50;;;;;13.88;65.59;101269.88;5017472;28;45196;-86
2021/09/02 03:20:05;;;;;;;;;59.75;47.00;;;;;13.85;65.78;101267.41;5018998;28;45237;-86
2021/09/02 03:22:30;;;;;;;;;58.50;45.00;;;;;13.73;65.69;101258.28;5018476;28;46380;-86
2021/09/02 03:24:55;;;;;;;;;59.25;46.50;;;;;13.67;65.89;101251.47;5019230;28;45246;-86
2021/09/02 03:27:21;;;;;;;;;58.00;46.00;;;;;13.75;66.14;101270.63;5019632;28;45202;-86
2021/09/02 03:29:46;;;;;;;;;57.00;46.50;;;;;13.66;66.15;101255.09;5018952;28;45189;-86
2021/09/02 03:32:11;;;;;;;;;59.25;47.00;;;;;13.64;66.35;101246.31;5018576;28;45485;-86
2021/09/02 03:34:37;;;;;;;;;55.00;45.00;;;;;13.69;66.28;101259.41;5018416;28;45206;-87
2021/09/02 03:37:02;;;;;;;;;50.25;41.00;;;;;13.55;66.36;101231.69;5033769;28;45286;-87
2021/09/02 03:39:28;;;;;;;;;55.50;43.00;;;;;13.55;66.27;101231.69;5018669;28;45109;-86
2021/09/02 03:41:53;;;;;;;;;53.50;43.75;;;;;13.56;66.18;101233.38;5033326;28;47266;-86
2021/09/02 03:44:18;;;;;;;;;53.33;41.33;;;;;13.62;66.09;101238.38;5032962;28;45291;-86
2021/09/02 03:46:44;;;;;;;;;56.00;42.75;;;;;13.61;66.11;101239.34;5033608;28;45089;-86
2021/09/02 03:49:09;;;;;;;;;48.75;41.00;;;;;13.54;66.39;101223.72;5017225;28;45303;-86
2021/09/02 03:51:34;;;;;;;;;53.25;41.00;;;;;13.54;66.40;101224.59;5018143;28;45505;-86
2021/09/02 03:54:00;;;;;;;;;49.25;39.75;;;;;13.51;66.71;101216.78;5016649;28;45181;-88
2021/09/02 03:56:25;;;;;;;;;49.25;40.00;;;;;13.35;66.77;101187.38;5018049;28;45250;-87
2021/09/02 03:58:51;;;;;;;;;52.33;41.67;;;;;13.30;66.09;101184.09;5016519;28;45286;-87
2021/09/02 04:01:17;;;;;;;;;47.00;37.50;;;;;13.57;66.49;101232.44;5017879;28;45376;-86
2021/09/02 04:03:42;;;;;;;;;47.00;38.25;;;;;13.45;66.54;101226.00;5016183;28;45371;-87
2021/09/02 04:06:08;;;;;;;;;44.00;37.00;;;;;13.40;66.59;101214.69;5033356;28;45162;-87
2021/09/02 04:08:33;;;;;;;;;44.00;35.50;;;;;13.53;66.63;101244.25;5016701;28;45164;-86
2021/09/02 04:10:58;;;;;;;;;47.75;38.75;;;;;13.39;66.62;101222.78;5017727;28;45552;-87
2021/09/02 04:13:24;;;;;;;;;47.25;36.75;;;;;13.34;66.68;101228.38;5032585;28;45555;-87
2021/09/02 04:15:49;;;;;;;;;48.00;36.75;;;;;13.40;66.59;101244.06;5016387;28;45156;-86
2021/09/02 04:18:15;;;;;;;;;44.75;37.25;;;;;13.33;67.29;101229.31;5018093;28;45179;-86
2021/09/02 04:20:41;;;;;;;;;41.50;35.00;;;;;13.42;66.76;101255.53;5016125;28;47835;-86
2021/09/02 04:23:06;;;;;;;;;44.75;35.25;;;;;13.22;67.08;101221.03;5016237;28;45588;-86
2021/09/02 04:25:31;;;;;;;;;41.50;35.50;;;;;13.31;66.91;101241.91;5017662;28;46383;-87
2021/09/02 04:27:56;;;;;;;;;43.50;35.50;;;;;13.28;66.82;101237.59;5016603;28;45373;-86
2021/09/02 04:30:22;;;;;;;;;41.25;34.50;;;;;13.20;67.17;101226.47;5015729;28;47015;-87
2021/09/02 04:32:47;;;;;;;;;36.00;31.75;;;;;13.32;67.08;101240.09;5017787;28;45242;-86
2021/09/02 04:35:13;;;;;;;;;39.25;31.75;;;;;13.22;66.80;101221.03;5017646;28;45313;-88
2021/09/02 04:37:40;;;;;;;;;40.25;32.25;;;;;13.20;66.88;101222.94;5016404;28;45420;-86
2021/09/02 04:40:07;;;;;;;;;41.25;33.00;;;;;13.28;67.04;101245.59;5015971;28;47265;-86
2021/09/02 04:42:32;;;;;;;;;43.25;33.50;;;;;13.26;67.03;101241.28;5017545;28;45715;-85
2021/09/02 04:44:59;;;;;;;;;40.75;32.75;;;;;13.10;66.97;101214.59;5017558;28;45225;-87
2021/09/02 04:47:25;;;;;;;;;40.25;34.50;;;;;13.24;66.90;101243.16;5032669;28;45377;-85
2021/09/02 04:49:50;;;;;;;;;37.75;29.75;;;;;13.21;66.95;101241.56;5017100;28;45308;-86
2021/09/02 04:52:15;;;;;;;;;47.50;34.50;;;;;13.13;66.82;101233.94;5017495;28;45212;-86
2021/09/02 04:54:41;;;;;;;;;42.75;35.25;;;;;13.10;67.15;101225.25;5016831;28;45254;-87
2021/09/02 04:57:09;;;;;;;;;41.25;34.25;;;;;13.12;67.26;101229.56;5022859;28;45234;-92
2021/09/02 05:00:03;;;;;;;;;38.25;31.25;;;;;13.17;67.38;101244.44;5025406;28;46635;-92
2021/09/02 05:02:29;;;;;;;;;43.00;35.50;;;;;12.99;67.62;101222.31;5012778;28;45197;-92
2021/09/02 05:04:54;;;;;;;;;38.50;33.00;;;;;12.80;67.25;101198.41;5019505;28;45249;-93
2021/09/02 05:07:20;;;;;;;;;44.50;34.00;;;;;12.79;67.45;101192.22;5019476;28;45282;-91
2021/09/02 05:09:45;;;;;;;;;47.50;34.75;;;;;13.06;67.48;101237.91;5019676;28;47178;-91
2021/09/02 05:12:13;;;;;;;;;43.00;32.75;;;;;12.73;67.45;101195.25;5023031;28;45323;-93
2021/09/02 05:14:39;;;;;;;;;41.50;32.50;;;;;13.02;67.34;101230.16;5005597;28;45280;-91
2021/09/02 05:17:04;;;;;;;;;40.75;32.75;;;;;12.88;67.47;101201.53;5018933;28;45387;-88
2021/09/02 05:19:29;;;;;;;;;42.75;34.00;;;;;12.78;67.09;101190.50;5016488;28;46688;-87
2021/09/02 05:21:55;;;;;;;;;39.50;33.25;;;;;12.91;67.50;101212.94;5016884;28;45387;-87
2021/09/02 05:24:20;;;;;;;;;41.00;34.00;;;;;13.03;67.65;101246.09;5032142;28;45242;-86
2021/09/02 05:26:45;;;;;;;;;45.33;34.33;;;;;12.88;67.67;101223.78;5016964;28;45199;-87
2021/09/02 05:29:11;;;;;;;;;42.75;31.50;;;;;12.85;67.65;101218.56;5016726;28;46661;-87
2021/09/02 05:31:36;;;;;;;;;41.25;35.00;;;;;12.92;67.80;101224.44;5015399;28;45764;-86
2021/09/02 05:34:01;;;;;;;;;34.25;31.25;;;;;12.91;67.71;101217.38;5016896;28;45559;-87
2021/09/02 05:36:27;;;;;;;;;46.00;36.75;;;;;12.97;67.74;101222.41;5032184;28;45413;-87
2021/09/02 05:38:52;;;;;;;;;38.25;32.25;;;;;13.02;68.06;101230.16;5031840;28;48077;-87
2021/09/02 05:41:17;;;;;;;;;38.75;33.00;;;;;12.98;67.82;101223.25;5016656;28;45217;-88
2021/09/02 05:43:43;;;;;;;;;37.50;34.25;;;;;12.92;67.98;101203.09;5015135;28;45247;-87
2021/09/02 05:46:08;;;;;;;;;41.75;32.50;;;;;13.06;67.61;101226.38;5015365;28;45437;-87
2021/09/02 05:48:33;;;;;;;;;46.00;35.25;;;;;13.12;67.63;101240.25;5015009;28;47187;-87
2021/09/02 05:50:58;;;;;;;;;43.33;33.33;;;;;13.18;68.08;101241.72;5016677;28;45342;-86
2021/09/02 05:53:24;;;;;;;;;56.25;42.50;;;;;13.07;68.03;101217.44;5015013;28;45248;-86
2021/09/02 05:55:50;;;;;;;;;46.00;36.00;;;;;13.27;67.45;101245.69;5031929;28;45428;-88
2021/09/02 05:58:18;;;;;;;;;44.25;34.25;;;;;13.30;67.90;101234.81;5016308;28;45365;-87
2021/09/02 06:00:43;;;;;;;;;45.00;36.25;;;;;13.29;67.51;101230.44;5014891;28;45767;-86
2021/09/02 06:03:09;;;;;;;;;44.25;34.75;;;;;13.38;67.64;101229.97;5016090;28;45209;-87
2021/09/02 06:05:34;;;;;;;;;40.00;33.25;;;;;13.41;67.35;101232.44;5016212;28;45266;-88
2021/09/02 06:08:00;;;;;;;;;46.25;37.00;;;;;13.57;67.50;101242.28;5038009;28;46992;-87
2021/09/02 06:10:25;;;;;;;;;41.50;32.75;;;;;13.55;67.32;101233.47;5021523;28;45482;-86
2021/09/02 06:12:50;;;;;;;;;39.25;32.25;;;;;13.53;67.16;101216.69;5037959;28;45321;-87
2021/09/02 06:15:17;;;;;;;;;45.00;36.00;;;;;13.66;66.83;101227.53;5021206;28;45189;-87
2021/09/02 06:17:43;;;;;;;;;38.00;33.00;;;;;13.79;67.18;101231.19;5021298;28;48028;-85
2021/09/02 06:20:10;;;;;;;;;41.25;35.50;;;;;13.88;66.88;101225.31;5022917;28;45171;-86
2021/09/02 06:22:36;;;;;;;;;43.50;35.00;;;;;14.07;66.95;101217.06;5022792;28;45369;-87
2021/09/02 06:25:03;;;;;;;;;45.75;37.00;;;;;14.43;66.41;101242.56;5022529;28;45366;-89
2021/09/02 06:27:28;;;;;;;;;40.75;32.75;;;;;14.60;65.83;101238.00;5021380;28;47973;-86
2021/09/02 06:29:54;;;;;;;;;43.50;35.50;;;;;14.59;65.65;101206.84;5021294;28;45752;-86
2021/09/02 06:32:19;;;;;;;;;46.00;33.25;;;;;14.86;65.28;101235.56;5022960;28;45240;-86
2021/09/02 06:34:45;;;;;;;;;40.25;33.25;;;;;15.12;65.05;101247.28;5037609;28;45370;-87
2021/09/02 06:37:10;;;;;;;;;43.50;35.75;;;;;15.18;64.47;101229.00;5022943;28;45372;-86
2021/09/02 06:39:35;;;;;;;;;46.00;35.50;;;;;15.36;64.34;101226.09;5022525;28;45240;-87
2021/09/02 06:42:01;;;;;;;;;43.00;35.50;;;;;15.58;63.76;101232.75;5021179;28;45176;-87
2021/09/02 06:44:26;;;;;;;;;50.75;38.50;;;;;15.67;63.59;101214.22;5022287;28;45172;-87
2021/09/02 06:46:51;;;;;;;;;47.25;37.75;;;;;15.88;63.36;101229.91;5021127;28;46901;-87
2021/09/02 06:49:17;;;;;;;;;43.25;34.50;;;;;16.02;62.73;101229.81;5020895;28;45560;-87
2021/09/02 06:51:42;;;;;;;;;49.50;38.25;;;;;16.20;62.67;101232.22;5037815;28;45200;-87
2021/09/02 06:54:08;;;;;;;;;44.50;34.75;;;;;16.33;62.25;101232.22;5022485;28;45261;-88
2021/09/02 06:56:34;;;;;;;;;44.50;34.50;;;;;16.61;62.14;101255.34;5020652;28;47079;-86
2021/09/02 06:58:59;;;;;;;;;42.75;35.25;;;;;16.74;61.69;101234.72;5022563;28;45171;-89
2021/09/02 07:01:24;;;;;;;;;42.25;34.75;;;;;16.95;61.00;101242.25;5037499;28;45270;-87
2021/09/02 07:03:50;;;;;;;;;34.75;30.00;;;;;17.12;61.24;101241.03;5022242;28;45064;-87
2021/09/02 07:06:16;;;;;;;;;41.75;33.75;;;;;17.26;60.58;101226.63;5022290;28;45474;-87
2021/09/02 07:08:41;;;;;;;;;35.25;29.75;;;;;17.53;60.11;101242.53;5020966;28;45117;-87
2021/09/02 07:11:07;;;;;;;;;37.25;31.25;;;;;17.73;59.81;101238.38;5037776;28;45255;-87
2021/09/02 07:13:32;;;;;;;;;39.75;33.25;;;;;17.94;58.67;101237.75;5022182;28;45278;-87
2021/09/02 07:15:58;;;;;;;;;40.00;34.25;;;;;18.05;58.90;101224.34;5022451;28;45438;-86
2021/09/02 07:18:23;;;;;;;;;33.00;31.25;;;;;18.28;58.09;101237.88;5018036;28;45376;-87
2021/09/02 07:20:48;;;;;;;;;40.75;34.75;;;;;18.39;57.85;101240.59;5018917;28;45262;-85
2021/09/02 07:23:14;;;;;;;;;45.00;33.75;;;;;18.53;58.00;101252.97;5018822;28;45203;-87
2021/09/02 07:25:40;;;;;;;;;41.75;33.75;;;;;18.56;57.87;101258.13;5033502;28;47169;-87
2021/09/02 07:28:05;;;;;;;;;39.75;34.25;;;;;18.67;57.25;101253.72;5017399;28;45670;-87
2021/09/02 07:30:31;;;;;;;;;37.00;33.00;;;;;18.67;56.91;101232.16;5019289;28;45245;-87
2021/09/02 07:32:57;;;;;;;;;39.00;32.25;;;;;18.96;56.62;101249.59;5017226;28;45310;-87
2021/09/02 07:35:23;;;;;;;;;37.75;30.50;;;;;19.10;56.59;101242.28;5018599;28;46523;-87
2021/09/02 07:37:48;;;;;;;;;35.50;31.25;;;;;19.42;56.36;101255.81;5018686;28;45139;-88
2021/09/02 07:40:13;;;;;;;;;33.25;31.25;;;;;19.49;54.50;101240.00;5017306;28;45244;-87
2021/09/02 07:42:39;;;;;;;;;48.25;36.75;;;;;19.56;54.71;101232.25;5018762;28;45263;-89
2021/09/02 07:45:05;;;;;;;;;36.50;30.50;;;;;19.76;54.79;101234.16;5018375;28;46246;-87
2021/09/02 07:47:33;;;;;;;;;38.75;29.00;;;;;19.88;53.70;101231.44;5018706;28;45267;-87
2021/09/02 07:49:59;;;;;;;;;38.25;33.25;;;;;20.11;53.42;101249.25;5018809;28;45226;-88
2021/09/02 07:52:25;;;;;;;;;38.75;32.75;;;;;20.08;52.87;101236.03;5017093;28;45244;-88
2021/09/02 07:54:50;;;;;;;;;33.50;27.25;;;;;20.10;53.53;101239.44;5033134;28;47331;-88
2021/09/02 07:57:15;;;;;;;;;32.50;27.50;;;;;19.96;53.56;101207.38;5018378;28;45234;-88
2021/09/02 07:59:41;;;;;;;;;38.75;31.75;;;;;20.11;52.62;101219.56;5033316;28;45127;-88
2021/09/02 08:02:06;;;;;;;;;32.75;28.75;;;;;20.31;52.57;101227.81;5018268;28;45163;-88
2021/09/02 08:04:31;;;;;;;;;33.00;26.75;;;;;20.55;52.48;101241.03;5016152;28;48085;-87
2021/09/02 08:06:57;;;;;;;;;26.00;24.50;;;;;20.82;52.40;101236.91;5033119;28;45207;-88
2021/09/02 08:09:23;;;;;;;;;33.00;26.25;;;;;21.03;51.12;101232.34;5018207;28;45089;-88
2021/09/02 08:11:48;;;;;;;;;33.50;28.25;;;;;21.32;50.87;101245.09;5016593;28;45150;-88
2021/09/02 08:14:14;;;;;;;;;35.50;27.50;;;;;21.29;49.85;101220.16;5017417;28;45202;-87
2021/09/02 08:16:39;;;;;;;;;32.75;29.00;;;;;21.45;49.62;101246.66;5017717;28;45217;-88
2021/09/02 08:19:04;;;;;;;;;27.75;24.25;;;;;21.42;50.59;101222.59;5018172;28;45261;-88
2021/09/02 08:21:30;;;;;;;;;23.50;23.25;;;;;21.56;50.15;101233.03;5016294;28;45374;-87
2021/09/02 08:23:58;;;;;;;;;25.75;23.75;;;;;21.64;50.01;101227.78;5017572;28;45529;-87
2021/09/02 08:26:25;;;;;;;;;30.00;25.75;;;;;21.94;49.91;101233.22;5015929;28;45637;-88
2021/09/02 08:28:51;;;;;;;;;26.75;26.75;;;;;22.19;48.87;101226.34;5017567;28;45636;-88
2021/09/02 08:31:16;;;;;;;;;29.50;25.75;;;;;22.41;48.59;101226.06;5017830;28;45342;-88
2021/09/02 08:33:42;;;;;;;;;29.25;25.50;;;;;22.54;48.40;101223.03;5032595;28;48261;-87
2021/09/02 08:36:07;;;;;;;;;28.00;25.00;;;;;22.75;48.45;101216.56;5032340;28;45710;-87
2021/09/02 08:38:32;;;;;;;;;25.25;23.25;;;;;22.88;47.77;101189.94;5032808;28;45330;-89
2021/09/02 08:40:58;;;;;;;;;29.25;26.50;;;;;23.25;47.37;101218.06;5017779;28;45134;-87
2021/09/02 08:43:24;;;;;;;;;26.25;23.25;;;;;23.49;47.12;101205.78;5015952;28;47256;-88
2021/09/02 08:45:49;;;;;;;;;29.75;24.25;;;;;23.71;46.51;101208.00;5017201;28;45159;-88
2021/09/02 08:48:16;;;;;;;;;26.75;22.50;;;;;23.74;46.41;101187.84;5016221;28;45077;-89
2021/09/02 08:50:42;;;;;;;;;27.75;25.50;;;;;24.02;45.83;101201.38;5017690;28;45310;-88
2021/09/02 08:53:08;;;;;;;;;32.00;24.00;;;;;24.13;45.18;101198.41;5017086;28;45294;-87
2021/09/02 08:55:35;;;;;;;;;30.50;22.75;;;;;24.24;44.86;101195.44;5015093;28;45682;-87
2021/09/02 08:58:00;;;;;;;;;31.00;26.00;;;;;24.44;45.02;101189.75;5017716;28;45367;-87
2021/09/02 09:00:27;;;;;;;;;32.75;28.50;;;;;24.60;44.31;101202.66;5017077;28;45387;-88
2021/09/02 09:03:02;;;;;;;;;24.50;21.25;;;;;24.59;43.68;101187.31;5017059;28;45400;-88
2021/09/02 09:05:30;;;;;;;;;31.75;27.75;;;;;24.60;44.11;101197.22;5015446;28;45611;-89
2021/09/02 09:07:56;;;;;;;;;26.50;23.00;;;;;24.81;44.19;101203.09;5015876;28;45215;-88
2021/09/02 09:10:29;;;;;;;;;29.25;23.75;;;;;25.06;42.97;101213.25;5017453;28;45322;-88
2021/09/02 09:13:03;;;;;;;;;23.50;22.50;;;;;25.11;43.59;101191.81;5016944;28;46315;-88
2021/09/02 09:15:38;;;;;;;;;24.50;22.00;;;;;25.26;43.16;101192.88;5015505;28;45561;-88
2021/09/02 09:18:18;;;;;;;;;27.75;22.00;;;;;25.41;42.72;101187.69;5015378;28;45244;-86
2021/09/02 09:20:45;;;;;;;;;26.00;23.25;;;;;25.57;41.97;101194.16;5017200;28;45363;-86
2021/09/02 09:23:10;;;;;;;;;22.75;20.25;;;;;25.79;42.26;101200.84;5016862;28;45330;-87
2021/09/02 09:25:36;;;;;;;;;26.25;24.25;;;;;25.90;41.80;101178.72;5016307;28;45302;-87
2021/09/02 09:28:01;;;;;;;;;24.50;19.25;;;;;25.98;41.49;101175.13;5015521;28;45347;-87
2021/09/02 09:30:33;;;;;;;;;23.75;22.50;;;;;25.99;41.68;101165.94;5032298;28;45330;-87
2021/09/02 09:33:05;;;;;;;;;22.50;20.50;;;;;26.06;41.57;101161.53;5015130;28;47232;-86
2021/09/02 09:35:36;;;;;;;;;27.25;23.75;;;;;26.40;41.03;101186.88;5015120;28;45205;-87
2021/09/02 09:38:11;;;;;;;;;24.75;19.25;;;;;26.61;40.37;101169.91;5016907;28;45198;-88
2021/09/02 09:40:43;;;;;;;;;27.25;24.25;;;;;26.72;39.99;101171.44;5016079;28;45144;-85
2021/09/02 09:43:14;;;;;;;;;23.50;21.75;;;;;26.92;40.15;101175.47;5015129;28;47189;-86
2021/09/02 09:45:45;;;;;;;;;26.00;21.00;;;;;27.17;40.08;101178.06;5016462;28;45533;-87
2021/09/02 09:48:22;;;;;;;;;19.50;18.00;;;;;27.41;39.95;101171.66;5016292;28;45295;-88
2021/09/02 09:51:13;;;;;;;;;23.25;21.00;;;;;27.50;38.99;101167.81;5015215;28;45297;-87
2021/09/02 09:53:41;;;;;;;;;27.00;21.50;;;;;27.46;38.70;101160.16;5016134;28;46106;-88
2021/09/02 09:56:07;;;;;;;;;20.50;19.50;;;;;27.20;38.22;101140.34;5014846;28;45559;-88
2021/09/02 09:58:32;;;;;;;;;20.50;18.50;;;;;27.25;38.73;101150.72;5015026;28;45241;-88
2021/09/02 10:01:00;;;;;;;;;20.25;18.25;;;;;27.53;39.33;101167.47;5016885;28;45311;-87
2021/09/02 10:03:27;;;;;;;;;23.75;22.00;;;;;27.73;37.97;101145.97;5015946;28;46242;-88
2021/09/02 10:05:53;;;;;;;;;21.75;21.75;;;;;28.01;37.39;101153.59;5015976;28;45692;-86
2021/09/02 10:08:20;;;;;;;;;17.50;16.50;;;;;27.90;37.35;101148.53;5015217;28;45250;-86
2021/09/02 10:10:49;;;;;;;;;23.00;18.25;;;;;27.81;38.14;101160.59;5031610;28;45415;-87
2021/09/02 10:13:16;;;;;;;;;20.00;18.50;;;;;27.93;37.48;101147.31;5014462;28;48330;-87
2021/09/02 10:15:41;;;;;;;;;16.00;16.00;;;;;28.12;37.33;101138.63;5014467;28;45873;-88
2021/09/02 10:18:07;;;;;;;;;21.50;21.00;;;;;28.37;37.10;101146.56;5016282;28;45287;-88
2021/09/02 10:20:36;;;;;;;;;27.00;20.25;;;;;28.62;37.24;101143.56;5014838;28;45341;-88
2021/09/02 10:23:03;;;;;;;;;23.25;19.75;;;;;28.94;36.60;101147.78;5014770;28;48242;-87
2021/09/02 10:25:35;;;;;;;;;21.75;19.75;;;;;29.08;34.98;101152.34;5016192;28;45680;-86
2021/09/02 10:28:25;;;;;;;;;18.75;17.25;;;;;28.86;35.82;101146.00;5016211;28;45211;-87
2021/09/02 10:30:54;;;;;;;;;20.75;19.50;;;;;28.87;35.40;101147.69;5016245;28;45377;-87
2021/09/02 10:33:42;;;;;;;;;19.50;19.00;;;;;28.87;36.87;101147.69;5014416;28;47426;-88
2021/09/02 10:36:10;;;;;;;;;20.25;18.00;;;;;29.16;35.98;101142.34;5015672;28;45479;-87
2021/09/02 10:38:49;;;;;;;;;16.50;15.75;;;;;29.46;35.60;101132.16;5015969;28;45211;-86
2021/09/02 10:41:15;;;;;;;;;17.75;15.25;;;;;29.54;35.50;101112.00;5014615;28;45514;-86
2021/09/02 10:43:54;;;;;;;;;17.75;16.75;;;;;29.84;35.44;101140.09;5015377;28;46243;-86
2021/09/02 10:46:29;;;;;;;;;21.25;20.75;;;;;30.04;35.13;101129.28;5014244;28;46120;-86
2021/09/02 10:48:55;;;;;;;;;17.25;16.00;;;;;30.28;33.91;101122.47;5016064;28;45369;-87
2021/09/02 10:51:39;;;;;;;;;21.75;18.25;;;;;30.43;33.86;101122.41;5016079;28;45351;-86
2021/09/02 10:54:06;;;;;;;;;19.25;19.25;;;;;30.61;33.85;101123.75;5017719;28;47287;-87
2021/09/02 10:56:49;;;;;;;;;17.25;17.25;;;;;30.62;33.67;101117.22;5019350;28;45220;-86
2021/09/02 10:59:43;;;;;;;;;20.50;17.00;;;;;30.45;33.63;101101.09;5019494;28;45181;-87
2021/09/02 11:02:16;;;;;;;;;19.75;18.00;;;;;30.73;33.93;101137.75;5017733;28;45302;-88
2021/09/02 11:04:42;;;;;;;;;17.25;16.25;;;;;30.71;32.41;101124.22;5019104;28;45649;-87
2021/09/02 11:07:07;;;;;;;;;21.50;16.75;;;;;30.51;32.56;101117.81;5019086;28;45583;-86
2021/09/02 11:09:35;;;;;;;;;17.25;16.75;;;;;30.27;32.23;101125.44;5034282;28;45140;-87